Time;durP1;ratioP1;P1;durP2;ratioP2;P2;SDS_P1;SDS_P2;PMS_P1;PMS_P2;Temp;Humidity;BMP_temperature;BMP_pressure;BME280_temperature;BME280_humidity;BME280_pressure;Samples;Min_cycle;Max_cycle;Signal;HPM_P1;HPM_P2
2022/05/30 00:00:00;;;;;;;15.52;9.70;;;;;;;15.97;79.31;95716.22;5096664;28;20113;-66
2022/05/30 00:02:26;;;;;;;13.43;9.43;;;;;;;15.91;79.47;95695.53;5096519;28;20031;-65
2022/05/30 00:04:51;;;;;;;13.07;10.60;;;;;;;15.84;80.49;95689.91;5096587;28;20021;-66
2022/05/30 00:07:17;;;;;;;17.33;10.10;;;;;;;15.83;80.70;95682.09;5096467;28;20101;-63
2022/05/30 00:09:43;;;;;;;14.68;9.60;;;;;;;15.78;80.89;95670.06;5096543;28;20024;-68
2022/05/30 00:12:08;;;;;;;14.55;10.40;;;;;;;15.78;81.39;95671.88;5096372;28;20110;-68
2022/05/30 00:14:34;;;;;;;16.67;10.85;;;;;;;15.79;81.28;95671.78;5096385;28;20131;-64
2022/05/30 00:17:00;;;;;;;12.77;10.30;;;;;;;15.77;81.63;95667.53;5096369;28;20035;-66
2022/05/30 00:19:26;;;;;;;12.73;10.35;;;;;;;15.74;82.04;95670.44;5096422;28;20024;-65
2022/05/30 00:21:54;;;;;;;16.90;10.88;;;;;;;15.78;82.09;95679.78;5096267;28;20363;-66
2022/05/30 00:24:20;;;;;;;13.32;10.43;;;;;;;15.83;82.21;95674.19;5096418;28;20096;-66
2022/05/30 00:26:45;;;;;;;15.52;11.43;;;;;;;15.90;82.40;95670.13;5096140;28;20103;-65
2022/05/30 00:29:11;;;;;;;13.13;10.43;;;;;;;15.95;82.08;95667.16;5096228;28;20067;-65
2022/05/30 00:31:36;;;;;;;14.70;10.85;;;;;;;15.99;81.57;95658.09;5096188;28;20021;-66
2022/05/30 00:34:03;;;;;;;14.98;10.75;;;;;;;16.03;81.61;95663.03;5096079;28;20063;-66
2022/05/30 00:36:28;;;;;;;11.73;10.52;;;;;;;16.01;81.40;95666.72;5095921;28;20028;-65
2022/05/30 00:38:55;;;;;;;15.48;10.82;;;;;;;16.06;81.96;95661.09;5095935;28;20393;-66
2022/05/30 00:41:21;;;;;;;13.25;10.10;;;;;;;16.10;81.55;95658.13;5095807;28;20065;-64
2022/05/30 00:43:47;;;;;;;14.68;10.02;;;;;;;16.11;81.46;95657.19;5095923;28;20024;-67
2022/05/30 00:46:16;;;;;;;12.63;10.02;;;;;;;16.09;81.53;95659.09;5095890;28;20023;-64
2022/05/30 00:48:47;;;;;;;15.95;10.50;;;;;;;16.02;82.31;95661.34;5095770;28;20173;-64
2022/05/30 00:51:20;;;;;;;16.42;10.15;;;;;;;16.01;82.74;95664.09;5095575;28;20127;-63
2022/05/30 00:53:49;;;;;;;17.48;10.27;;;;;;;16.04;82.55;95669.13;5095872;28;20038;-66
2022/05/30 00:56:15;;;;;;;13.02;10.82;;;;;;;15.96;82.33;95682.91;5095772;28;20138;-67
2022/05/30 00:58:49;;;;;;;15.57;10.20;;;;;;;15.92;83.10;95676.97;5095610;28;20020;-64
2022/05/30 01:01:16;;;;;;;13.05;11.65;;;;;;;15.98;83.40;95683.63;5095637;28;20035;-67
2022/05/30 01:06:45;;;;;;;19.92;11.40;;;;;;;15.91;84.27;95724.56;5095746;28;20043;-69
2022/05/30 01:09:14;;;;;;;15.93;12.32;;;;;;;15.89;84.10;95722.03;5095373;28;20388;-67
2022/05/30 01:12:04;;;;;;;13.02;11.30;;;;;;;15.97;83.72;95739.13;5095314;28;20044;-63
2022/05/30 01:14:34;;;;;;;15.43;11.60;;;;;;;15.98;83.27;95736.38;5095329;28;20383;-64
2022/05/30 01:17:02;;;;;;;13.27;11.00;;;;;;;16.07;83.04;95732.22;5095277;28;20036;-65
2022/05/30 01:19:46;;;;;;;17.27;12.43;;;;;;;16.08;82.83;95722.50;5095136;28;20028;-67
2022/05/30 01:22:34;;;;;;;15.48;11.55;;;;;;;16.09;82.05;95730.31;5095019;28;20489;-63
2022/05/30 01:25:20;;;;;;;18.80;11.82;;;;;;;16.10;81.84;95724.06;5066022;28;20393;-64
2022/05/30 01:28:03;;;;;;;15.70;11.18;;;;;;;16.04;81.94;95717.47;5094994;28;20059;-65
2022/05/30 01:30:32;;;;;;;14.20;11.40;;;;;;;16.08;82.11;95714.59;5094848;28;20097;-65
2022/05/30 01:32:58;;;;;;;15.15;12.30;;;;;;;15.97;81.85;95713.59;5094896;28;20020;-66
2022/05/30 01:35:26;;;;;;;15.20;12.70;;;;;;;15.94;82.29;95716.41;5094763;28;20351;-66
2022/05/30 01:37:52;;;;;;;16.25;12.32;;;;;;;15.98;82.34;95711.81;5094851;28;20035;-65
2022/05/30 01:40:18;;;;;;;15.30;10.23;;;;;;;16.01;80.66;95716.81;5094832;28;20024;-66
2022/05/30 01:42:44;;;;;;;16.65;11.73;;;;;;;15.90;81.11;95720.25;5094698;28;20539;-65
2022/05/30 01:45:11;;;;;;;21.80;15.40;;;;;;;15.82;81.91;95722.56;5094211;28;20477;-65
2022/05/30 01:47:36;;;;;;;20.52;14.25;;;;;;;15.89;82.03;95719.38;5094559;28;20085;-63
2022/05/30 01:50:03;;;;;;;17.15;13.45;;;;;;;15.90;81.79;95709.69;5094374;28;20447;-64
2022/05/30 01:52:30;;;;;;;19.83;13.40;;;;;;;15.84;81.21;95697.81;5094493;28;20106;-63
2022/05/30 01:54:55;;;;;;;19.70;13.98;;;;;;;15.78;81.52;95699.06;5094468;28;20024;-66
2022/05/30 01:57:21;;;;;;;15.48;12.50;;;;;;;15.82;81.09;95701.47;5094519;28;20027;-66
2022/05/30 01:59:47;;;;;;;15.90;11.90;;;;;;;15.71;80.26;95703.09;5094446;28;20436;-65
2022/05/30 02:02:12;;;;;;;14.23;12.80;;;;;;;15.66;80.65;95707.88;5094231;28;20017;-65
2022/05/30 02:04:38;;;;;;;22.73;14.80;;;;;;;15.55;81.94;95721.81;5094230;28;20028;-66
2022/05/30 02:07:04;;;;;;;18.58;14.60;;;;;;;15.44;83.06;95721.75;5094278;28;20054;-62
2022/05/30 02:09:30;;;;;;;16.15;13.85;;;;;;;15.42;83.26;95716.59;5094261;28;20485;-62
2022/05/30 02:11:56;;;;;;;22.95;14.43;;;;;;;15.41;83.38;95712.25;5094211;28;20026;-66
2022/05/30 02:14:22;;;;;;;20.45;14.63;;;;;;;15.47;83.63;95709.19;5094121;28;20031;-67
2022/05/30 02:17:06;;;;;;;24.08;14.65;;;;;;;15.55;83.71;95708.63;5094030;28;20055;-66
2022/05/30 02:19:42;;;;;;;16.30;12.95;;;;;;;15.63;83.00;95703.66;5094162;28;20032;-64
2022/05/30 02:22:14;;;;;;;17.27;12.32;;;;;;;15.66;82.15;95702.59;5093842;28;20546;-66
2022/05/30 02:24:40;;;;;;;14.93;12.18;;;;;;;15.66;82.09;95700.78;5094113;28;20055;-64
2022/05/30 02:27:07;;;;;;;15.60;12.10;;;;;;;15.68;82.20;95711.22;5093924;28;20051;-68
2022/05/30 02:29:33;;;;;;;16.05;11.40;;;;;;;15.65;81.77;95709.66;5093804;28;20026;-63
2022/05/30 02:31:59;;;;;;;15.50;11.57;;;;;;;15.60;81.57;95709.16;5093767;28;20024;-66
2022/05/30 02:37:09;;;;;;;16.42;11.45;;;;;;;15.57;81.56;95704.13;5093990;28;20172;-65
2022/05/30 02:39:35;;;;;;;12.90;11.60;;;;;;;15.49;81.93;95704.66;5093584;28;20466;-64
2022/05/30 02:42:01;;;;;;;19.75;13.27;;;;;;;15.48;82.60;95704.75;5093606;28;20016;-68
2022/05/30 02:44:27;;;;;;;15.68;12.98;;;;;;;15.48;83.26;95708.25;5093745;28;20425;-63
2022/05/30 02:46:55;;;;;;;19.85;13.52;;;;;;;15.43;83.57;95713.00;5093602;28;20126;-67
2022/05/30 02:49:21;;;;;;;16.50;12.68;;;;;;;15.49;83.52;95706.44;5093189;28;20504;-66
2022/05/30 02:51:48;;;;;;;17.67;12.25;;;;;;;15.51;83.04;95712.44;5093586;28;20355;-65
2022/05/30 02:54:14;;;;;;;21.05;12.00;;;;;;;15.57;82.63;95717.28;5093528;28;20058;-65
2022/05/30 02:56:41;;;;;;;17.90;12.20;;;;;;;15.59;82.17;95722.44;5092672;28;20020;-63
2022/05/30 02:59:07;;;;;;;15.73;11.57;;;;;;;15.56;82.19;95717.41;5093458;28;20044;-62
2022/05/30 03:01:34;;;;;;;17.10;11.15;;;;;;;15.57;81.97;95716.44;5093361;28;20024;-62
2022/05/30 03:04:02;;;;;;;14.85;11.57;;;;;;;15.57;81.71;95717.28;5093411;28;20474;-68
2022/05/30 03:06:28;;;;;;;17.08;11.85;;;;;;;15.57;81.51;95716.44;5093487;28;20103;-66
2022/05/30 03:08:56;;;;;;;19.73;12.45;;;;;;;15.62;81.35;95711.69;5093289;28;20024;-64
2022/05/30 03:11:22;;;;;;;15.77;11.13;;;;;;;15.68;81.16;95721.78;5093310;28;20389;-64
2022/05/30 03:13:48;;;;;;;16.20;10.73;;;;;;;15.70;80.64;95725.16;5093219;28;20513;-64
2022/05/30 03:16:13;;;;;;;14.10;11.00;;;;;;;15.72;80.37;95738.22;5093265;28;20051;-66
2022/05/30 03:18:39;;;;;;;18.65;10.55;;;;;;;15.75;79.59;95738.00;5093172;28;20103;-66
2022/05/30 03:21:05;;;;;;;13.10;9.25;;;;;;;15.73;78.83;95745.16;5093164;28;20020;-64
2022/05/30 03:23:31;;;;;;;11.35;10.20;;;;;;;15.71;78.60;95741.81;5093217;28;20078;-66
2022/05/30 03:25:57;;;;;;;10.70;9.20;;;;;;;15.68;78.76;95757.84;5093077;28;20046;-61
2022/05/30 03:28:23;;;;;;;16.50;10.43;;;;;;;15.68;78.83;95753.41;5093013;28;20077;-66
2022/05/30 03:30:49;;;;;;;10.70;9.60;;;;;;;15.72;78.68;95759.31;5093077;28;20028;-65
2022/05/30 03:33:15;;;;;;;12.18;9.18;;;;;;;15.76;78.53;95766.91;5093041;28;20028;-64
2022/05/30 03:35:40;;;;;;;11.88;9.13;;;;;;;15.88;77.93;95772.22;5093042;28;20028;-67
2022/05/30 03:38:07;;;;;;;10.25;8.30;;;;;;;15.98;77.36;95770.66;5092991;28;20020;-65
2022/05/30 03:40:36;;;;;;;9.88;8.38;;;;;;;16.03;77.31;95770.31;5093020;28;20028;-65
2022/05/30 03:43:09;;;;;;;10.25;7.57;;;;;;;16.23;76.51;95771.53;5092887;28;20093;-65
2022/05/30 03:45:41;;;;;;;8.98;7.10;;;;;;;16.53;75.36;95761.44;5092977;28;20039;-63
2022/05/30 03:48:10;;;;;;;9.20;7.05;;;;;;;16.77;74.70;95761.38;5092869;28;20407;-63
2022/05/30 03:50:38;;;;;;;10.68;7.80;;;;;;;17.07;74.36;95775.06;5092551;28;20178;-64
2022/05/30 03:53:07;;;;;;;11.02;7.25;;;;;;;17.45;73.71;95773.03;5092894;28;20051;-66
2022/05/30 03:55:36;;;;;;;8.50;6.70;;;;;;;17.83;71.78;95776.28;5092837;28;20052;-65
2022/05/30 03:58:04;;;;;;;8.27;6.20;;;;;;;18.16;69.74;95779.00;5092900;28;20470;-63
2022/05/30 04:00:31;;;;;;;13.27;6.07;;;;;;;18.50;68.34;95788.63;5092722;28;20028;-66
2022/05/30 04:02:57;;;;;;;7.95;5.53;;;;;;;18.75;67.93;95794.56;5092537;28;20040;-65
2022/05/30 04:05:24;;;;;;;6.50;5.57;;;;;;;18.96;66.68;95796.41;5092802;28;20016;-66
2022/05/30 04:07:49;;;;;;;11.20;6.95;;;;;;;19.15;65.84;95798.34;5093862;28;20541;-65
2022/05/30 04:10:15;;;;;;;9.35;5.07;;;;;;;19.30;65.88;95799.69;5096654;28;20072;-63
2022/05/30 04:12:42;;;;;;;8.45;5.18;;;;;;;19.49;64.81;95802.56;5096479;28;20024;-67
2022/05/30 04:15:11;;;;;;;6.40;5.18;;;;;;;19.70;64.04;95799.88;5096438;28;20024;-66
2022/05/30 04:17:37;;;;;;;8.15;5.53;;;;;;;19.91;63.60;95801.63;5096489;28;20044;-63
2022/05/30 04:20:05;;;;;;;11.00;5.10;;;;;;;20.13;63.21;95802.41;5096511;28;20071;-65
2022/05/30 04:22:32;;;;;;;8.13;5.80;;;;;;;20.43;63.00;95798.84;5096257;28;20484;-67
2022/05/30 04:24:57;;;;;;;6.72;5.55;;;;;;;20.83;61.82;95805.00;5096258;28;20103;-68
2022/05/30 04:27:23;;;;;;;8.23;5.57;;;;;;;21.20;59.56;95803.44;5096208;28;20524;-66
2022/05/30 04:29:49;;;;;;;8.45;5.65;;;;;;;21.50;59.04;95800.72;5096232;28;20370;-62
2022/05/30 04:32:16;;;;;;;12.38;5.97;;;;;;;21.71;58.18;95795.16;5096156;28;20501;-69
2022/05/30 04:34:42;;;;;;;9.57;5.50;;;;;;;21.96;57.02;95803.50;5095908;28;20035;-66
2022/05/30 04:37:08;;;;;;;11.38;4.78;;;;;;;22.18;57.60;95798.75;5096040;28;20020;-66
2022/05/30 04:39:34;;;;;;;9.07;5.55;;;;;;;22.42;57.23;95808.00;5096030;28;20028;-66
2022/05/30 04:41:59;;;;;;;7.40;5.00;;;;;;;22.71;57.06;95809.66;5095867;28;20051;-66
2022/05/30 04:44:25;;;;;;;12.02;5.20;;;;;;;23.04;55.89;95814.44;5095885;28;20486;-65
2022/05/30 04:46:56;;;;;;;8.20;5.38;;;;;;;23.34;54.38;95814.16;5095887;28;20084;-64
2022/05/30 04:49:22;;;;;;;9.00;5.30;;;;;;;23.58;54.41;95818.84;5095925;28;20048;-67
2022/05/30 04:51:49;;;;;;;8.40;5.00;;;;;;;23.91;54.50;95830.69;5095683;28;20112;-70
2022/05/30 04:54:16;;;;;;;6.28;5.00;;;;;;;24.10;53.64;95821.56;5096078;28;20477;-66
2022/05/30 04:56:42;;;;;;;10.63;5.13;;;;;;;24.25;53.17;95821.81;5095691;28;20027;-64
2022/05/30 04:59:08;;;;;;;7.93;5.50;;;;;;;24.38;53.77;95825.88;5095657;28;20381;-67
2022/05/30 05:01:34;;;;;;;10.30;5.32;;;;;;;24.62;52.26;95833.09;5095543;28;20028;-64
2022/05/30 05:04:00;;;;;;;5.93;5.07;;;;;;;24.79;52.14;95827.78;5095359;28;20062;-67
2022/05/30 05:06:26;;;;;;;8.23;4.88;;;;;;;25.02;50.10;95830.69;5095418;28;20056;-65
2022/05/30 05:08:54;;;;;;;9.10;5.43;;;;;;;25.26;51.02;95834.38;5095492;28;20017;-64
2022/05/30 05:11:21;;;;;;;10.18;4.90;;;;;;;25.54;50.70;95822.44;5095392;28;20020;-67
2022/05/30 05:13:47;;;;;;;9.05;5.00;;;;;;;25.83;49.42;95826.44;5095286;28;20094;-65
2022/05/30 05:16:14;;;;;;;8.15;4.90;;;;;;;26.07;50.41;95822.81;5095331;28;20468;-66
2022/05/30 05:18:40;;;;;;;10.57;4.95;;;;;;;26.36;50.00;95831.25;5094949;28;20470;-65
2022/05/30 05:21:07;;;;;;;7.38;4.93;;;;;;;26.71;49.08;95831.75;5094602;28;20020;-66
2022/05/30 05:23:33;;;;;;;7.63;4.70;;;;;;;26.96;46.31;95828.88;5095119;28;20028;-65
2022/05/30 05:26:01;;;;;;;7.95;4.78;;;;;;;26.88;46.84;95832.47;5095101;28;20474;-67
2022/05/30 05:28:27;;;;;;;7.53;5.00;;;;;;;27.02;47.24;95832.72;5095098;28;20080;-64
2022/05/30 05:30:53;;;;;;;12.75;4.70;;;;;;;27.23;47.89;95841.94;5095046;28;20055;-65
2022/05/30 05:33:19;;;;;;;10.88;5.15;;;;;;;27.43;48.77;95842.28;5094968;28;20044;-70
2022/05/30 05:35:46;;;;;;;10.50;4.70;;;;;;;27.67;46.59;95853.84;5094878;28;20024;-65
2022/05/30 05:38:13;;;;;;;12.65;5.20;;;;;;;27.60;46.77;95851.00;5094926;28;20012;-66
2022/05/30 05:40:44;;;;;;;11.27;5.07;;;;;;;27.73;46.49;95857.63;5094705;28;20414;-64
2022/05/30 05:43:10;;;;;;;5.55;4.28;;;;;;;27.90;45.54;95858.28;5094627;28;20081;-71
2022/05/30 05:45:37;;;;;;;10.02;4.80;;;;;;;27.70;45.71;95861.53;5094786;28;20032;-66
2022/05/30 05:48:03;;;;;;;9.45;4.72;;;;;;;27.87;44.86;95872.09;5094572;28;20028;-65
2022/05/30 05:50:29;;;;;;;9.15;4.70;;;;;;;28.04;43.94;95871.91;5094345;28;20040;-67
2022/05/30 05:52:55;;;;;;;12.90;4.53;;;;;;;28.07;44.54;95876.91;5094544;28;20039;-65
2022/05/30 05:55:22;;;;;;;5.90;3.92;;;;;;;28.19;44.23;95877.28;5094481;28;20508;-66
2022/05/30 05:57:47;;;;;;;12.88;5.10;;;;;;;28.46;43.41;95886.56;5094592;28;20020;-69
2022/05/30 06:00:14;;;;;;;9.20;4.63;;;;;;;28.60;44.08;95878.66;5094402;28;20024;-65
2022/05/30 06:02:40;;;;;;;9.20;3.80;;;;;;;28.61;42.36;95883.00;5094195;28;20024;-66
2022/05/30 06:05:08;;;;;;;12.57;4.55;;;;;;;28.63;43.54;95879.09;5094452;28;20027;-65
2022/05/30 06:07:40;;;;;;;15.23;4.93;;;;;;;28.48;42.23;95881.00;5094420;28;20028;-66
2022/05/30 06:10:09;;;;;;;12.90;3.92;;;;;;;28.59;41.84;95880.50;5094353;28;20054;-70
2022/05/30 06:12:37;;;;;;;16.42;4.53;;;;;;;28.69;41.46;95880.22;5094065;28;20039;-66
2022/05/30 06:15:06;;;;;;;7.82;3.97;;;;;;;28.76;40.71;95886.50;5094094;28;20025;-64
2022/05/30 06:17:32;;;;;;;8.82;3.88;;;;;;;28.72;41.82;95885.22;5094065;28;20032;-67
2022/05/30 06:19:59;;;;;;;12.98;4.63;;;;;;;28.99;41.45;95890.91;5094156;28;20031;-65
2022/05/30 06:22:25;;;;;;;10.63;4.18;;;;;;;29.28;39.15;95882.09;5093987;28;20474;-66
2022/05/30 06:24:51;;;;;;;12.48;3.78;;;;;;;29.57;39.26;95889.22;5093978;28;20020;-68
2022/05/30 06:27:19;;;;;;;11.38;3.65;;;;;;;29.79;37.77;95889.16;5093934;28;20052;-63
2022/05/30 06:29:45;;;;;;;10.38;3.97;;;;;;;29.97;38.47;95895.91;5094018;28;20374;-68
2022/05/30 06:32:11;;;;;;;12.88;3.70;;;;;;;29.67;37.13;95901.50;5093788;28;20038;-67
2022/05/30 06:34:37;;;;;;;8.07;3.60;;;;;;;29.67;37.40;95910.41;5092479;28;20085;-62
2022/05/30 06:37:02;;;;;;;9.30;4.05;;;;;;;29.10;37.11;95910.28;5093687;28;20482;-66
2022/05/30 06:39:28;;;;;;;11.15;3.40;;;;;;;29.07;37.51;95919.56;5093670;28;20102;-67
2022/05/30 06:41:54;;;;;;;9.40;3.50;;;;;;;29.16;38.66;95924.84;5093550;28;20028;-66
2022/05/30 06:44:19;;;;;;;6.25;3.47;;;;;;;29.26;38.54;95928.06;5093761;28;20024;-63
2022/05/30 06:46:45;;;;;;;8.73;3.60;;;;;;;29.27;37.98;95924.31;5093618;28;20020;-67
2022/05/30 06:49:11;;;;;;;9.77;3.58;;;;;;;28.66;36.49;95933.56;5093238;28;20032;-68
2022/05/30 06:51:37;;;;;;;9.32;3.40;;;;;;;28.70;37.15;95921.41;5093628;28;20028;-67
2022/05/30 06:54:04;;;;;;;8.77;3.67;;;;;;;28.91;37.10;95934.06;5093522;28;20024;-67
2022/05/30 06:56:35;;;;;;;11.35;3.83;;;;;;;29.17;37.88;95923.81;5093506;28;20020;-65
2022/05/30 06:59:01;;;;;;;7.63;3.30;;;;;;;29.24;35.92;95924.72;5093563;28;20028;-68
2022/05/30 07:01:30;;;;;;;11.57;3.30;;;;;;;29.58;35.46;95925.88;5093332;28;20084;-64
2022/05/30 07:03:56;;;;;;;9.52;3.60;;;;;;;30.07;35.24;95923.34;5093213;28;20161;-67
2022/05/30 07:06:26;;;;;;;7.70;3.50;;;;;;;30.30;34.63;95927.66;5093418;28;20114;-62
2022/05/30 07:08:51;;;;;;;6.60;3.38;;;;;;;30.38;35.94;95923.97;5093430;28;20027;-69
2022/05/30 07:11:19;;;;;;;13.07;4.10;;;;;;;30.15;34.79;95922.34;5093314;28;20024;-67
2022/05/30 07:13:45;;;;;;;11.18;3.30;;;;;;;30.17;35.70;95924.88;5093209;28;20024;-69
2022/05/30 07:16:12;;;;;;;8.63;3.60;;;;;;;30.19;34.86;95925.53;5093165;28;20020;-67
2022/05/30 07:18:44;;;;;;;11.20;3.88;;;;;;;30.05;38.58;95928.09;5093197;28;20377;-69
2022/05/30 07:21:13;;;;;;;5.55;3.00;;;;;;;29.61;36.15;95925.50;5093336;28;20028;-68
2022/05/30 07:23:39;;;;;;;6.55;3.50;;;;;;;29.59;38.00;95926.72;5093026;28;20032;-65
2022/05/30 07:26:09;;;;;;;18.88;3.38;;;;;;;28.78;38.05;95934.75;5093056;28;20055;-66
2022/05/30 07:28:35;;;;;;;7.32;3.78;;;;;;;28.89;40.02;95938.78;5093066;28;20073;-68
2022/05/30 07:31:06;;;;;;;8.60;3.25;;;;;;;28.92;38.91;95941.09;5093000;28;20024;-66
2022/05/30 07:33:33;;;;;;;9.73;3.60;;;;;;;29.10;38.18;95942.56;5093033;28;20028;-70
2022/05/30 07:36:00;;;;;;;6.35;3.33;;;;;;;29.07;37.85;95938.41;5093036;28;20028;-66
2022/05/30 07:38:26;;;;;;;7.72;3.47;;;;;;;28.45;38.91;95938.69;5093171;28;20099;-65
2022/05/30 07:40:52;;;;;;;7.07;3.15;;;;;;;27.78;39.81;95941.19;5092873;28;20040;-69
2022/05/30 07:43:18;;;;;;;5.40;2.70;;;;;;;27.14;39.71;95935.09;5094950;28;20635;-67
2022/05/30 07:45:44;;;;;;;11.88;3.42;;;;;;;26.91;41.19;95933.19;5096983;28;20107;-68
2022/05/30 07:48:09;;;;;;;7.28;2.90;;;;;;;27.36;42.71;95929.94;5096913;28;20024;-66
2022/05/30 07:50:36;;;;;;;7.95;2.90;;;;;;;27.91;38.95;95947.78;5096619;28;20059;-65
2022/05/30 07:53:02;;;;;;;6.32;3.10;;;;;;;27.96;38.55;95950.78;5096889;28;20049;-65
2022/05/30 07:55:29;;;;;;;5.13;2.70;;;;;;;27.87;40.76;95958.03;5096853;28;20020;-61
2022/05/30 07:57:56;;;;;;;5.28;2.33;;;;;;;27.24;40.00;95953.69;5096952;28;20039;-68
2022/05/30 08:00:24;;;;;;;4.90;2.35;;;;;;;27.12;41.44;95953.25;5096821;28;20377;-69
2022/05/30 08:02:52;;;;;;;6.22;2.78;;;;;;;27.42;44.76;95956.03;5096651;28;20027;-68
2022/05/30 08:05:19;;;;;;;9.32;3.13;;;;;;;27.62;40.01;95960.94;5096692;28;20023;-65
2022/05/30 08:07:45;;;;;;;7.25;2.85;;;;;;;27.84;40.95;95963.81;5096688;28;20103;-69
2022/05/30 08:10:13;;;;;;;6.05;2.78;;;;;;;28.00;39.82;95962.81;5096692;28;20017;-66
2022/05/30 08:12:39;;;;;;;7.03;2.65;;;;;;;28.15;39.50;95972.75;5096634;28;20069;-68
2022/05/30 08:15:06;;;;;;;10.13;3.08;;;;;;;28.18;38.52;95967.84;5096517;28;20021;-67
2022/05/30 08:17:32;;;;;;;6.47;3.10;;;;;;;28.16;38.42;95974.41;5096328;28;20077;-67
2022/05/30 08:19:59;;;;;;;10.88;3.28;;;;;;;27.87;38.81;95961.59;5096446;28;20365;-62
2022/05/30 08:22:26;;;;;;;7.97;3.10;;;;;;;27.59;39.35;95970.19;5096314;28;20024;-65
2022/05/30 08:24:54;;;;;;;8.70;3.03;;;;;;;27.54;39.24;95975.25;5096373;28;20024;-68
2022/05/30 08:27:20;;;;;;;8.50;2.65;;;;;;;27.63;39.99;95979.53;5096228;28;20090;-67
2022/05/30 08:29:46;;;;;;;7.10;2.45;;;;;;;27.86;40.07;95973.34;5096275;28;20024;-71
2022/05/30 08:32:13;;;;;;;3.97;2.22;;;;;;;27.87;41.37;95977.69;5096251;28;20032;-65
2022/05/30 08:34:42;;;;;;;4.93;2.30;;;;;;;27.81;40.58;95981.09;5096088;28;20500;-69
2022/05/30 08:37:09;;;;;;;4.07;2.28;;;;;;;27.96;39.97;95986.53;5096138;28;20039;-68
2022/05/30 08:42:27;;;;;;;7.68;1.95;;;;;;;26.38;42.21;95992.75;5096100;28;20158;-70
2022/05/30 08:44:54;;;;;;;6.13;2.25;;;;;;;25.65;44.57;95998.00;5095909;28;20032;-64
2022/05/30 08:47:58;;;;;;;4.70;2.20;;;;;;;25.22;45.43;95999.75;5095846;28;20085;-64
2022/05/30 08:51:13;;;;;;;5.93;2.15;;;;;;;24.99;45.55;96003.00;5095631;28;20035;-69
2022/05/30 08:53:55;;;;;;;7.03;2.83;;;;;;;25.30;49.35;96004.28;5082459;28;20078;-66
2022/05/30 08:56:33;;;;;;;6.00;2.55;;;;;;;25.67;45.78;96001.34;5095405;28;20036;-66
2022/05/30 08:59:13;;;;;;;4.43;2.00;;;;;;;25.85;43.44;96007.34;5095742;28;20035;-65
2022/05/30 09:01:39;;;;;;;;;;;;;;;25.76;44.92;95997.66;5096134;28;20056;-68
2022/05/30 09:04:16;;;;;;;3.85;2.05;;;;;;;25.81;45.31;96005.19;5095467;28;19965;-62
2022/05/30 09:06:47;;;;;;;2.63;1.80;;;;;;;25.88;45.69;96000.81;5095534;28;20032;-66
2022/05/30 09:09:48;;;;;;;3.40;1.92;;;;;;;25.77;43.73;96009.19;5095611;28;20481;-66
2022/05/30 09:12:33;;;;;;;4.70;2.00;;;;;;;25.73;44.62;96016.72;5094927;28;20043;-66
2022/05/30 09:15:08;;;;;;;4.82;2.13;;;;;;;25.90;44.29;96004.19;5094194;28;20093;-66
2022/05/30 09:17:48;;;;;;;6.05;2.17;;;;;;;26.31;45.79;96015.88;5095433;28;20436;-68
2022/05/30 09:20:19;;;;;;;5.68;1.98;;;;;;;26.21;43.04;96014.19;5095257;28;20024;-69
2022/05/30 09:22:45;;;;;;;3.88;2.08;;;;;;;26.18;42.97;96019.03;5095293;28;20496;-67
2022/05/30 09:28:00;;;;;;;5.93;2.17;;;;;;;25.70;44.56;96022.41;5095358;28;20113;-68
2022/05/30 09:30:35;;;;;;;3.58;2.35;;;;;;;25.40;44.13;96033.56;5095072;28;20485;-63
2022/05/30 09:33:20;;;;;;;4.30;2.53;;;;;;;25.29;44.07;96039.22;5095031;28;20028;-65
2022/05/30 09:35:45;;;;;;;8.50;2.63;;;;;;;25.36;44.78;96029.53;5095164;28;20024;-68
2022/05/30 09:38:20;;;;;;;6.65;2.03;;;;;;;25.40;45.21;96041.59;5094931;28;20144;-66
2022/05/30 09:40:53;;;;;;;5.10;2.42;;;;;;;25.36;44.97;96040.25;5094794;28;20039;-66
2022/05/30 09:43:39;;;;;;;3.47;1.88;;;;;;;25.64;44.26;96037.28;5094938;28;20032;-66
2022/05/30 09:46:19;;;;;;;7.07;2.13;;;;;;;25.99;44.90;96043.34;5094927;28;20026;-64
2022/05/30 09:49:21;;;;;;;4.80;1.98;;;;;;;25.73;42.04;96052.38;5094770;28;20030;-64
2022/05/30 09:51:52;;;;;;;4.65;2.10;;;;;;;25.53;44.26;96054.50;5062415;28;20052;-64
2022/05/30 09:54:24;;;;;;;4.50;2.13;;;;;;;25.49;44.28;96048.63;5094648;28;20060;-69
2022/05/30 09:56:52;;;;;;;4.88;1.90;;;;;;;25.33;45.62;96046.78;5094574;28;20120;-66
2022/05/30 09:59:23;;;;;;;3.83;2.20;;;;;;;25.31;44.42;96047.94;5094566;28;20016;-65
2022/05/30 10:01:54;;;;;;;3.97;2.60;;;;;;;25.38;44.63;96040.94;5094632;28;20122;-67
2022/05/30 10:04:37;;;;;;;6.13;2.80;;;;;;;25.72;43.13;96040.00;5094329;28;20032;-66
2022/05/30 10:07:09;;;;;;;5.15;2.05;;;;;;;26.10;43.52;96049.38;5093967;28;20089;-66
2022/05/30 10:09:41;;;;;;;3.25;2.65;;;;;;;26.18;41.91;96045.84;5094427;28;20030;-69
2022/05/30 10:12:08;;;;;;;6.13;2.38;;;;;;;26.50;41.89;96046.84;5094271;28;20453;-64
2022/05/30 10:14:35;;;;;;;6.63;2.30;;;;;;;26.48;41.41;96052.38;5094278;28;20012;-66
2022/05/30 10:17:12;;;;;;;5.70;2.65;;;;;;;26.62;42.60;96050.84;5094173;28;20047;-67
2022/05/30 10:19:42;;;;;;;4.10;2.30;;;;;;;26.27;42.74;96046.69;5094084;28;20102;-67
2022/05/30 10:28:52;;;;;;;3.70;2.00;;;;;;;25.81;43.03;96051.56;5094021;28;20116;-65
2022/05/30 10:31:33;;;;;;;6.93;2.53;;;;;;;25.73;43.26;96054.22;5093837;28;20058;-66
2022/05/30 10:34:21;;;;;;;5.38;2.58;;;;;;;25.80;44.63;96055.25;5093825;28;20035;-63
2022/05/30 10:36:56;;;;;;;5.25;2.20;;;;;;;25.56;42.70;96056.84;5093831;28;20024;-62
2022/05/30 10:39:33;;;;;;;5.10;2.30;;;;;;;25.46;43.98;96059.66;5093898;28;20038;-65
2022/05/30 10:42:06;;;;;;;5.20;2.55;;;;;;;25.54;45.02;96055.31;5093793;28;20036;-64
2022/05/30 10:44:52;;;;;;;4.28;2.22;;;;;;;25.65;44.03;96062.25;5093793;28;20028;-67
2022/05/30 10:47:38;;;;;;;5.60;2.45;;;;;;;25.70;43.96;96057.22;5093533;28;20129;-68
2022/05/30 10:50:20;;;;;;;4.90;2.53;;;;;;;25.81;44.94;96064.09;5093253;28;20051;-67
2022/05/30 10:53:03;;;;;;;3.78;2.40;;;;;;;25.60;43.51;96063.59;5093677;28;20111;-67
2022/05/30 10:55:36;;;;;;;3.72;2.80;;;;;;;25.41;44.82;96059.34;5093463;28;20406;-63
2022/05/30 10:58:08;;;;;;;2.83;2.20;;;;;;;25.26;44.87;96063.63;5093525;28;20024;-64
2022/05/30 11:00:46;;;;;;;7.30;3.05;;;;;;;25.57;46.17;96063.88;5093518;28;20024;-63
2022/05/30 11:03:32;;;;;;;3.58;2.15;;;;;;;26.17;44.23;96066.44;5093316;28;20052;-64
2022/05/30 11:06:08;;;;;;;5.45;3.03;;;;;;;26.68;41.95;96065.41;5093488;28;20494;-67
2022/05/30 11:08:53;;;;;;;5.43;2.53;;;;;;;27.25;41.28;96060.00;5093233;28;20036;-65
2022/05/30 11:11:39;;;;;;;4.88;2.53;;;;;;;27.71;41.71;96053.88;5093315;28;20496;-65
2022/05/30 11:14:41;;;;;;;6.28;2.42;;;;;;;27.85;39.33;96054.97;5093438;28;20486;-65
2022/05/30 11:17:15;;;;;;;5.75;2.35;;;;;;;27.84;40.68;96050.59;5092497;28;20032;-68
2022/05/30 11:20:15;;;;;;;6.18;2.30;;;;;;;27.93;40.00;96054.06;5093216;28;20059;-67
2022/05/30 11:22:46;;;;;;;;;;;;;;;28.31;39.29;96049.72;5059412;28;20035;-63
2022/05/30 11:25:20;;;;;;;7.32;2.35;;;;;;;28.57;38.85;96052.00;5093153;28;19919;-66
2022/05/30 11:28:12;;;;;;;4.00;2.13;;;;;;;28.09;37.82;96060.31;5093414;28;20058;-67
2022/05/30 11:30:50;;;;;;;4.40;2.25;;;;;;;27.65;39.42;96051.06;5093107;28;20529;-66
2022/05/30 11:33:52;;;;;;;7.00;2.58;;;;;;;27.45;40.93;96059.56;5093339;28;20050;-64
2022/05/30 11:36:46;;;;;;;4.20;2.47;;;;;;;27.27;40.33;96059.84;5093218;28;20053;-66
2022/05/30 11:39:30;;;;;;;4.38;1.98;;;;;;;27.09;41.97;96061.75;5093205;28;20064;-65
2022/05/30 11:42:09;;;;;;;4.63;1.90;;;;;;;26.97;41.95;96057.75;5093075;28;20024;-67
2022/05/30 11:44:55;;;;;;;6.00;2.00;;;;;;;27.14;41.24;96068.47;5093099;28;20363;-68
2022/05/30 11:47:50;;;;;;;5.70;2.60;;;;;;;27.10;40.46;96062.59;5093013;28;20040;-66
2022/05/30 11:50:18;;;;;;;4.47;2.22;;;;;;;27.11;41.06;96061.56;5092810;28;20059;-64
2022/05/30 11:53:11;;;;;;;6.03;2.67;;;;;;;26.71;40.38;96065.06;5093068;28;20048;-64
2022/05/30 11:55:47;;;;;;;4.65;2.33;;;;;;;26.68;41.55;96059.19;5092941;28;20031;-66
2022/05/30 11:58:24;;;;;;;5.72;2.47;;;;;;;26.71;43.35;96062.38;5092901;28;20028;-67